createdAt,value
2022-12-19T00:01:47.544Z,71.40
2022-12-19T00:04:21.064Z,71.30
2022-12-19T00:06:52.670Z,71.20
2022-12-19T00:09:25.953Z,71.10
2022-12-19T00:11:57.611Z,70.90
2022-12-19T00:14:29.220Z,70.90
2022-12-19T00:17:00.851Z,70.80
2022-12-19T00:19:32.493Z,70.70
2022-12-19T00:22:09.638Z,70.60
2022-12-19T00:24:44.153Z,70.40
2022-12-19T00:27:15.754Z,70.40
2022-12-19T00:29:47.552Z,70.70
2022-12-19T00:32:19.170Z,70.10
2022-12-19T00:34:50.770Z,69.90
2022-12-19T00:37:22.377Z,69.80
2022-12-19T00:39:55.321Z,69.80
2022-12-19T00:42:27.865Z,69.70
2022-12-19T00:45:00.374Z,69.70
2022-12-19T00:47:31.985Z,69.60
2022-12-19T00:50:03.761Z,69.40
2022-12-19T00:52:35.375Z,69.30
2022-12-19T00:55:14.132Z,69.30
2022-12-19T00:57:50.796Z,69.30
2022-12-19T01:00:24.853Z,69.20
2022-12-19T01:02:56.535Z,69.20
2022-12-19T01:05:28.243Z,68.90
2022-12-19T01:08:00.003Z,68.20
2022-12-19T01:10:32.959Z,67.70
2022-12-19T01:13:04.587Z,67.50
2022-12-19T01:15:39.084Z,67.50
2022-12-19T01:18:10.854Z,67.60
2022-12-19T01:20:43.539Z,67.70
2022-12-19T01:23:15.863Z,68.00
2022-12-19T01:25:52.295Z,68.40
2022-12-19T01:28:24.542Z,68.70
2022-12-19T01:30:56.117Z,69.00
2022-12-19T01:33:27.745Z,69.30
2022-12-19T01:36:01.730Z,69.60
2022-12-19T01:38:33.762Z,70.10
2022-12-19T01:41:06.786Z,70.30
2022-12-19T01:43:58.462Z,70.60
2022-12-19T01:46:32.558Z,70.80
2022-12-19T01:49:04.602Z,71.10
2022-12-19T01:51:39.202Z,71.40
2022-12-19T01:54:15.744Z,71.70
2022-12-19T01:56:51.738Z,71.90
2022-12-19T01:59:28.030Z,72.10
2022-12-19T02:02:06.451Z,72.30
2022-12-19T02:04:40.641Z,72.50
2022-12-19T02:07:15.853Z,72.70
2022-12-19T02:09:56.923Z,72.90
2022-12-19T02:12:33.474Z,73.10
2022-12-19T02:15:06.081Z,73.30
2022-12-19T02:17:41.096Z,73.60
2022-12-19T02:20:20.683Z,73.70
2022-12-19T02:23:02.497Z,73.90
2022-12-19T02:25:42.872Z,74.10
2022-12-19T02:28:31.934Z,74.30
2022-12-19T02:31:17.451Z,74.50
2022-12-19T02:33:55.384Z,74.60
2022-12-19T02:36:36.358Z,74.70
2022-12-19T02:39:11.960Z,74.80
2022-12-19T02:41:46.040Z,74.90
2022-12-19T02:44:20.723Z,75.10
2022-12-19T02:46:55.638Z,75.20
2022-12-19T02:49:31.142Z,75.30
2022-12-19T02:52:09.325Z,75.40
2022-12-19T02:54:44.837Z,75.50
2022-12-19T02:57:20.245Z,75.70
2022-12-19T02:59:55.829Z,75.80
2022-12-19T03:02:34.058Z,75.90
2022-12-19T03:05:08.627Z,76.00
2022-12-19T03:07:42.717Z,76.10
2022-12-19T03:10:18.586Z,76.20
2022-12-19T03:12:52.536Z,76.40
2022-12-19T03:15:24.446Z,76.50
2022-12-19T03:17:57.934Z,76.70
2022-12-19T03:20:35.520Z,76.70
2022-12-19T03:23:07.414Z,76.80
2022-12-19T03:25:40.734Z,76.90
2022-12-19T03:28:16.010Z,76.90
2022-12-19T03:30:48.478Z,77.00
2022-12-19T03:33:22.373Z,77.00
2022-12-19T03:35:54.420Z,77.10
2022-12-19T03:38:26.544Z,77.20
2022-12-19T03:40:59.712Z,77.30
2022-12-19T03:43:32.131Z,77.50
2022-12-19T03:46:06.052Z,77.60
2022-12-19T03:48:41.826Z,77.60
2022-12-19T03:51:22.377Z,77.60
2022-12-19T03:53:58.464Z,77.80
2022-12-19T03:56:41.642Z,77.90
2022-12-19T03:59:18.908Z,78.00
2022-12-19T04:01:53.590Z,78.10
2022-12-19T04:04:28.187Z,78.10
2022-12-19T04:07:02.735Z,78.20
2022-12-19T04:09:36.935Z,78.30
2022-12-19T04:12:13.552Z,78.40
2022-12-19T04:14:45.763Z,78.60
2022-12-19T04:17:26.452Z,78.60
2022-12-19T04:20:05.349Z,78.80
2022-12-19T04:22:41.846Z,78.90
2022-12-19T04:25:18.360Z,79.00
2022-12-19T04:27:53.607Z,79.10
2022-12-19T04:30:26.663Z,79.20
2022-12-19T04:32:59.525Z,79.30
2022-12-19T04:35:32.777Z,79.30
2022-12-19T04:38:04.706Z,79.40
2022-12-19T04:40:41.509Z,79.40
2022-12-19T04:43:13.668Z,79.50
2022-12-19T04:45:46.132Z,79.60
2022-12-19T04:48:18.527Z,79.80
2022-12-19T04:50:51.704Z,79.90
2022-12-19T04:53:24.771Z,80.00
2022-12-19T04:56:01.213Z,80.10
2022-12-19T04:58:33.592Z,80.20
2022-12-19T05:01:07.647Z,80.30
2022-12-19T05:03:39.785Z,80.40
2022-12-19T05:06:14.070Z,80.50
2022-12-19T05:08:46.410Z,80.70
2022-12-19T05:11:20.009Z,80.70
2022-12-19T05:13:52.003Z,80.70
2022-12-19T05:16:23.790Z,80.90
2022-12-19T05:18:57.153Z,81.00
2022-12-19T05:21:30.116Z,81.10
2022-12-19T05:24:01.878Z,81.10
2022-12-19T05:26:33.648Z,81.10
2022-12-19T05:29:05.409Z,81.30
2022-12-19T05:31:37.304Z,81.40
2022-12-19T05:34:09.121Z,81.50
2022-12-19T05:36:42.242Z,81.70
2022-12-19T05:39:14.156Z,81.80
2022-12-19T05:41:49.006Z,81.90
2022-12-19T05:44:21.295Z,82.00
2022-12-19T05:46:53.097Z,82.10
2022-12-19T05:49:24.911Z,82.20
2022-12-19T05:51:58.293Z,82.30
2022-12-19T05:54:31.107Z,82.50
2022-12-19T05:57:02.982Z,82.50
2022-12-19T05:59:34.761Z,82.60
2022-12-19T06:02:06.641Z,82.70
2022-12-19T06:04:38.452Z,82.90
2022-12-19T06:07:13.454Z,83.00
2022-12-19T06:09:47.066Z,83.10
2022-12-19T06:12:18.860Z,83.10
2022-12-19T06:14:50.929Z,83.30
2022-12-19T06:17:22.884Z,83.40
2022-12-19T06:19:54.622Z,83.50
2022-12-19T06:22:27.719Z,83.60
2022-12-19T06:24:59.547Z,83.80
2022-12-19T06:27:31.352Z,83.80
2022-12-19T06:30:03.597Z,86.10
2022-12-19T06:32:38.097Z,87.80
2022-12-19T06:35:10.219Z,85.20
2022-12-19T06:37:43.334Z,84.30
2022-12-19T06:40:35.160Z,84.60
2022-12-19T06:43:06.949Z,84.80
2022-12-19T06:45:38.730Z,84.40
2022-12-19T06:48:10.521Z,84.50
2022-12-19T06:50:42.251Z,84.80
2022-12-19T06:53:15.386Z,85.00
2022-12-19T06:55:47.451Z,85.10
2022-12-19T06:58:24.061Z,85.00
2022-12-19T07:00:56.794Z,84.90
2022-12-19T07:03:31.246Z,85.10
2022-12-19T07:06:03.404Z,85.20
2022-12-19T07:08:36.603Z,85.40
2022-12-19T07:11:08.221Z,85.50
2022-12-19T07:13:39.837Z,85.60
2022-12-19T07:16:13.454Z,85.60
2022-12-19T07:18:45.111Z,85.70
2022-12-19T07:21:16.910Z,85.90
2022-12-19T07:23:51.948Z,85.90
2022-12-19T07:26:23.574Z,86.00
2022-12-19T07:28:55.215Z,86.10
2022-12-19T07:31:26.852Z,86.10
2022-12-19T07:33:58.488Z,86.20
2022-12-19T07:36:30.517Z,86.30
2022-12-19T07:39:03.632Z,86.40
2022-12-19T07:41:36.085Z,86.50
2022-12-19T07:44:07.948Z,86.60
2022-12-19T07:46:39.715Z,86.80
2022-12-19T07:49:11.386Z,86.90
2022-12-19T07:51:42.979Z,86.90
2022-12-19T07:54:15.927Z,87.00
2022-12-19T07:56:47.572Z,87.10
2022-12-19T07:59:19.193Z,87.20
2022-12-19T08:01:50.940Z,87.80
2022-12-19T08:04:22.936Z,87.50
2022-12-19T08:06:54.669Z,87.60
2022-12-19T08:09:27.789Z,87.70
2022-12-19T08:11:59.427Z,87.80
2022-12-19T08:14:31.041Z,87.90
2022-12-19T08:19:54.283Z,88.20
2022-12-19T08:22:25.925Z,88.20
2022-12-19T08:24:58.960Z,88.20
2022-12-19T08:27:30.613Z,88.30
2022-12-19T08:30:02.650Z,88.40
2022-12-19T08:32:34.473Z,88.50
2022-12-19T08:35:07.442Z,88.60
2022-12-19T08:37:40.383Z,88.80
2022-12-19T08:40:13.589Z,88.80
2022-12-19T08:42:45.506Z,88.80
2022-12-19T08:45:18.156Z,88.90
2022-12-19T08:47:49.785Z,89.00
2022-12-19T08:50:21.386Z,89.10
2022-12-19T08:52:52.993Z,89.10
2022-12-19T08:55:25.931Z,89.30
2022-12-19T08:58:01.464Z,89.30
2022-12-19T09:00:33.844Z,89.40
2022-12-19T09:03:05.556Z,89.50
2022-12-19T09:06:01.494Z,89.50
2022-12-19T09:08:30.521Z,89.50
2022-12-19T09:11:04.945Z,89.60
2022-12-19T09:13:37.422Z,89.60
2022-12-19T09:16:10.910Z,89.80
2022-12-19T09:18:48.442Z,90.00
2022-12-19T09:21:23.056Z,89.90
2022-12-19T09:24:00.536Z,89.90
2022-12-19T09:26:39.260Z,90.00
2022-12-19T09:29:19.849Z,90.00
2022-12-19T09:31:56.173Z,90.10
2022-12-19T09:34:37.058Z,90.20
2022-12-19T09:37:16.665Z,90.10
2022-12-19T09:39:49.695Z,90.40
2022-12-19T09:42:44.732Z,90.20
2022-12-19T09:45:37.338Z,90.20
2022-12-19T09:48:23.514Z,90.30
2022-12-19T09:51:10.512Z,90.30
2022-12-19T09:53:54.308Z,90.40
2022-12-19T09:56:28.510Z,90.40
2022-12-19T09:59:05.766Z,90.50
2022-12-19T10:01:50.780Z,90.60
2022-12-19T10:04:26.718Z,90.70
2022-12-19T10:07:21.261Z,90.80
2022-12-19T10:12:40.720Z,90.80
2022-12-19T10:13:13.202Z,90.80
2022-12-19T10:15:58.995Z,90.80
2022-12-19T10:18:48.445Z,90.90
2022-12-19T10:21:59.489Z,90.90
2022-12-19T10:24:40.367Z,90.90
2022-12-19T10:27:15.802Z,91.00
2022-12-19T10:29:51.971Z,91.10
2022-12-19T10:32:29.419Z,91.20
2022-12-19T10:35:01.391Z,91.30
2022-12-19T10:37:45.557Z,91.30
2022-12-19T10:40:27.204Z,91.30
2022-12-19T10:43:06.490Z,91.40
2022-12-19T10:45:46.904Z,91.40
2022-12-19T10:48:22.401Z,91.50
2022-12-19T10:51:06.752Z,91.50
2022-12-19T10:53:38.808Z,91.50
2022-12-19T10:56:20.497Z,91.50
2022-12-19T10:58:58.623Z,91.50
2022-12-19T11:01:34.806Z,91.60
2022-12-19T11:04:29.505Z,91.60
2022-12-19T11:07:19.049Z,91.60
2022-12-19T11:10:06.479Z,91.60
2022-12-19T11:17:46.797Z,91.60
2022-12-19T11:19:28.386Z,91.60
2022-12-19T11:29:15.212Z,91.60
2022-12-19T11:29:31.733Z,91.60
2022-12-19T11:30:38.169Z,91.70
2022-12-19T11:30:46.257Z,91.70
2022-12-19T11:33:24.010Z,91.70
2022-12-19T11:35:58.965Z,91.70
2022-12-19T11:38:39.865Z,91.70
2022-12-19T11:41:13.283Z,91.70
2022-12-19T11:43:49.948Z,91.70
2022-12-19T11:46:25.911Z,91.70
2022-12-19T11:49:05.239Z,91.70
2022-12-19T11:51:43.420Z,91.70
2022-12-19T11:54:20.697Z,91.70
2022-12-19T11:56:52.818Z,91.60
2022-12-19T11:59:30.638Z,91.50
2022-12-19T12:02:41.973Z,91.50
2022-12-19T12:05:32.894Z,91.40
2022-12-19T12:10:40.102Z,91.40
2022-12-19T12:18:11.883Z,91.50
2022-12-19T12:23:27.172Z,91.60
2022-12-19T12:31:10.766Z,91.50
2022-12-19T12:31:23.723Z,91.50
2022-12-19T12:31:44.727Z,91.30
2022-12-19T12:31:48.869Z,91.10
2022-12-19T12:32:03.000Z,91.00
2022-12-19T12:35:28.855Z,90.90
2022-12-19T12:39:04.883Z,90.80
2022-12-19T12:42:03.730Z,90.70
2022-12-19T12:44:45.207Z,90.70
2022-12-19T12:47:20.525Z,90.60
2022-12-19T12:49:56.367Z,90.60
2022-12-19T12:52:33.769Z,90.50
2022-12-19T12:55:15.506Z,90.50
2022-12-19T12:57:47.456Z,90.50
2022-12-19T13:00:26.187Z,90.70
2022-12-19T13:03:05.111Z,90.90
2022-12-19T13:05:53.013Z,90.90
2022-12-19T13:08:34.396Z,90.70
2022-12-19T13:11:11.677Z,90.60
2022-12-19T13:13:55.032Z,90.50
2022-12-19T13:16:53.015Z,90.40
2022-12-19T13:19:28.767Z,90.40
2022-12-19T13:22:34.212Z,90.40
2022-12-19T13:25:44.843Z,90.40
2022-12-19T13:28:38.979Z,90.30
2022-12-19T13:31:22.932Z,90.20
2022-12-19T13:34:18.263Z,90.20
2022-12-19T13:39:51.497Z,90.10
2022-12-19T13:40:20.605Z,90.00
2022-12-19T13:43:20.665Z,89.90
2022-12-19T13:45:55.510Z,89.70
2022-12-19T13:48:31.668Z,89.60
2022-12-19T13:51:05.799Z,89.60
2022-12-19T13:53:38.044Z,89.50
2022-12-19T13:56:12.460Z,89.40
2022-12-19T13:58:47.095Z,89.50
2022-12-19T14:01:22.111Z,89.30
2022-12-19T14:03:55.698Z,89.20
2022-12-19T14:06:29.900Z,89.20
2022-12-19T14:11:24.045Z,89.10
2022-12-19T14:13:50.169Z,89.10
2022-12-19T14:15:13.477Z,89.10
2022-12-19T14:17:48.127Z,89.20
2022-12-19T14:22:02.467Z,89.20
2022-12-19T14:23:14.218Z,89.30
2022-12-19T14:28:16.787Z,89.30
2022-12-19T14:28:41.871Z,89.30
2022-12-19T14:31:15.048Z,89.30
2022-12-19T14:34:11.090Z,89.40
2022-12-19T14:36:39.910Z,89.40
2022-12-19T14:39:24.456Z,89.30
2022-12-19T14:42:49.252Z,89.30
2022-12-19T14:52:11.612Z,89.30
2022-12-19T14:54:03.654Z,89.20
2022-12-19T14:54:24.403Z,89.10
2022-12-19T14:56:04.139Z,89.00
2022-12-19T14:57:25.492Z,89.10
2022-12-19T15:00:50.720Z,89.00
2022-12-19T15:03:25.179Z,89.00
2022-12-19T15:06:03.261Z,88.90
2022-12-19T15:11:00.975Z,89.00
2022-12-19T15:14:47.322Z,89.00
2022-12-19T15:15:17.329Z,88.80
2022-12-19T15:17:50.109Z,88.80
2022-12-19T15:20:21.923Z,88.80
2022-12-19T15:22:53.508Z,88.80
2022-12-19T15:26:01.154Z,88.90
2022-12-19T15:28:19.475Z,88.90
2022-12-19T15:30:52.777Z,88.90
2022-12-19T15:33:24.447Z,88.80
2022-12-19T15:35:56.098Z,88.70
2022-12-19T15:38:27.741Z,88.70
2022-12-19T15:40:59.346Z,88.70
2022-12-19T15:44:02.691Z,88.80
2022-12-19T15:46:25.210Z,88.80
2022-12-19T15:48:56.879Z,88.80
2022-12-19T15:51:28.511Z,88.90
2022-12-19T15:54:38.412Z,88.90
2022-12-19T15:56:53.839Z,88.90
2022-12-19T15:59:36.408Z,88.90
2022-12-19T16:02:15.778Z,89.00
2022-12-19T16:04:48.405Z,89.10
2022-12-19T16:07:21.017Z,89.20
2022-12-19T16:09:52.731Z,89.30
2022-12-19T16:12:25.776Z,89.40
2022-12-19T16:14:59.595Z,89.40
2022-12-19T16:17:32.538Z,89.40
2022-12-19T16:20:06.439Z,89.50
2022-12-19T16:22:38.764Z,89.50
2022-12-19T16:25:11.465Z,89.40
2022-12-19T16:27:43.453Z,89.50
2022-12-19T16:30:19.137Z,89.50
2022-12-19T16:32:51.092Z,89.50
2022-12-19T16:36:01.862Z,89.50
2022-12-19T16:38:15.604Z,89.50
2022-12-19T16:40:47.934Z,89.40
2022-12-19T16:43:23.125Z,89.70
2022-12-19T16:46:00.786Z,90.90
2022-12-19T16:48:35.787Z,92.20
2022-12-19T16:51:12.205Z,93.00
2022-12-19T16:53:43.866Z,92.80
2022-12-19T16:56:20.763Z,92.60
2022-12-19T16:58:52.645Z,92.20
2022-12-19T17:01:25.738Z,91.80
2022-12-19T17:03:57.530Z,91.20
2022-12-19T17:06:29.290Z,90.70
2022-12-19T17:09:01.041Z,90.20
2022-12-19T17:11:33.259Z,89.50
2022-12-19T17:14:08.184Z,88.60
2022-12-19T17:16:41.216Z,87.80
2022-12-19T17:19:17.904Z,86.90
2022-12-19T17:21:50.044Z,86.10
2022-12-19T17:24:21.722Z,85.30
2022-12-19T17:26:53.345Z,84.70
2022-12-19T17:29:25.121Z,83.80
2022-12-19T17:31:58.591Z,83.10
2022-12-19T17:34:32.188Z,82.60
2022-12-19T17:37:05.405Z,82.30
2022-12-19T17:39:38.250Z,81.80
2022-12-19T17:42:16.417Z,81.40
2022-12-19T17:44:48.355Z,81.00
2022-12-19T17:47:21.503Z,80.70
2022-12-19T17:49:53.287Z,80.20
2022-12-19T17:52:24.885Z,80.00
2022-12-19T17:54:56.490Z,79.60
2022-12-19T17:57:28.125Z,79.30
2022-12-19T17:59:59.737Z,79.00
2022-12-19T18:02:34.784Z,78.70
2022-12-19T18:05:07.401Z,78.40
2022-12-19T18:07:38.979Z,78.20
2022-12-19T18:10:14.396Z,77.90
2022-12-19T18:12:46.073Z,77.60
2022-12-19T18:15:18.337Z,77.30
2022-12-19T18:17:52.576Z,77.10
2022-12-19T18:20:31.229Z,77.00
2022-12-19T18:23:09.804Z,76.80
2022-12-19T18:25:41.425Z,76.70
2022-12-19T18:28:13.268Z,76.60
2022-12-19T18:30:45.803Z,76.30
2022-12-19T18:33:20.538Z,76.10
2022-12-19T18:35:52.195Z,75.90
2022-12-19T18:38:24.004Z,75.70
2022-12-19T18:40:55.628Z,75.70
2022-12-19T18:43:27.327Z,75.60
2022-12-19T18:45:58.996Z,75.50
2022-12-19T18:48:32.908Z,75.40
2022-12-19T18:51:05.160Z,75.40
2022-12-19T18:53:37.001Z,75.20
2022-12-19T18:56:08.644Z,75.00
2022-12-19T18:58:40.626Z,74.80
2022-12-19T19:01:13.715Z,74.40
2022-12-19T19:03:48.735Z,74.30
2022-12-19T19:06:21.715Z,74.10
2022-12-19T19:08:53.908Z,74.00
2022-12-19T19:11:25.843Z,74.00
2022-12-19T19:13:57.522Z,74.10
2022-12-19T19:16:29.683Z,74.30
2022-12-19T19:19:04.276Z,74.50
2022-12-19T19:21:36.177Z,74.50
2022-12-19T19:24:09.111Z,74.40
2022-12-19T19:26:40.860Z,74.30
2022-12-19T19:29:15.662Z,74.30
2022-12-19T19:31:48.338Z,74.10
2022-12-19T19:34:23.095Z,73.90
2022-12-19T19:36:56.021Z,73.80
2022-12-19T19:39:28.167Z,74.00
2022-12-19T19:42:01.010Z,73.90
2022-12-19T19:44:32.876Z,73.40
2022-12-19T19:47:04.599Z,72.80
2022-12-19T19:49:37.978Z,72.40
2022-12-19T19:52:09.610Z,72.30
2022-12-19T19:54:41.263Z,72.40
2022-12-19T19:57:12.857Z,72.80
2022-12-19T19:59:44.879Z,73.00
2022-12-19T20:02:16.809Z,73.40
2022-12-19T20:04:50.086Z,74.20
2022-12-19T20:07:21.727Z,75.90
2022-12-19T20:09:53.377Z,76.90
2022-12-19T20:12:24.973Z,77.40
2022-12-19T20:14:56.694Z,77.60
2022-12-19T20:17:28.339Z,77.60
2022-12-19T20:20:01.317Z,77.60
2022-12-19T20:22:32.945Z,77.40
2022-12-19T20:25:04.953Z,77.10
2022-12-19T20:27:36.646Z,77.00
2022-12-19T20:30:09.009Z,76.70
2022-12-19T20:32:40.698Z,76.50
2022-12-19T20:35:15.136Z,76.20
2022-12-19T20:37:46.959Z,76.00
2022-12-19T20:40:18.927Z,75.80
2022-12-19T20:42:50.688Z,75.70
2022-12-19T20:45:22.586Z,75.50
2022-12-19T20:47:55.287Z,75.40
2022-12-19T20:50:28.725Z,75.20
2022-12-19T20:53:00.648Z,75.00
2022-12-19T20:55:32.412Z,74.90
2022-12-19T20:58:04.332Z,74.70
2022-12-19T21:00:37.392Z,74.60
2022-12-19T21:06:03.380Z,74.30
2022-12-19T21:08:35.489Z,74.20
2022-12-19T21:11:08.678Z,74.10
2022-12-19T21:13:41.477Z,74.00
2022-12-19T21:16:16.499Z,74.00
2022-12-19T21:18:49.038Z,73.80
2022-12-19T21:21:24.281Z,73.70
2022-12-19T21:23:56.129Z,73.60
2022-12-19T21:26:27.929Z,73.40
2022-12-19T21:28:59.993Z,73.30
2022-12-19T21:31:32.027Z,73.30
2022-12-19T21:34:03.909Z,73.30
2022-12-19T21:36:38.494Z,73.10
2022-12-19T21:39:10.966Z,72.90
2022-12-19T21:41:42.731Z,73.00
2022-12-19T21:44:14.482Z,72.80
2022-12-19T21:46:46.335Z,72.70
2022-12-19T21:49:18.176Z,72.60
2022-12-19T21:51:51.336Z,72.50
2022-12-19T21:54:23.104Z,72.90
2022-12-19T21:56:54.890Z,72.40
2022-12-19T21:59:28.413Z,72.30
2022-12-19T22:02:00.358Z,72.40
2022-12-19T22:04:32.321Z,72.30
2022-12-19T22:07:05.830Z,72.30
2022-12-19T22:09:37.611Z,72.30
2022-12-19T22:12:11.917Z,72.30
2022-12-19T22:14:43.761Z,71.70
2022-12-19T22:17:15.535Z,71.20
2022-12-19T22:19:47.342Z,71.20
2022-12-19T22:22:20.433Z,71.40
2022-12-19T22:24:52.192Z,71.60
2022-12-19T22:27:24.991Z,71.90
2022-12-19T22:29:57.032Z,72.30
2022-12-19T22:32:29.437Z,72.70
2022-12-19T22:35:01.078Z,73.30
2022-12-19T22:37:34.176Z,73.70
2022-12-19T22:40:06.504Z,74.10
2022-12-19T22:42:38.092Z,74.50
2022-12-19T22:45:10.298Z,75.00
2022-12-19T22:47:42.224Z,75.40
2022-12-19T22:50:13.835Z,75.90
2022-12-19T22:52:46.801Z,76.30
2022-12-19T22:55:18.464Z,76.60
2022-12-19T22:57:50.057Z,77.00
2022-12-19T23:00:21.951Z,77.30
2022-12-19T23:02:53.797Z,77.60
2022-12-19T23:05:25.574Z,77.80
2022-12-19T23:07:58.516Z,78.10
2022-12-19T23:10:30.160Z,78.40
2022-12-19T23:13:01.747Z,78.70
2022-12-19T23:15:34.490Z,78.90
2022-12-19T23:18:06.064Z,79.30
2022-12-19T23:20:37.834Z,79.50
2022-12-19T23:23:10.816Z,79.80
2022-12-19T23:25:42.431Z,80.00
2022-12-19T23:28:14.028Z,80.30
2022-12-19T23:30:45.643Z,80.60
2022-12-19T23:33:17.263Z,80.90
2022-12-19T23:35:48.880Z,81.10
2022-12-19T23:38:21.822Z,81.40
2022-12-19T23:40:58.282Z,81.60
2022-12-19T23:43:31.126Z,81.80
2022-12-19T23:46:05.108Z,82.10
2022-12-19T23:48:36.925Z,82.30
2022-12-19T23:51:10.472Z,82.40
2022-12-19T23:53:43.771Z,82.70
2022-12-19T23:56:16.202Z,82.90
2022-12-19T23:58:47.842Z,82.90
